Time;durP1;ratioP1;P1;durP2;ratioP2;P2;SDS_P1;SDS_P2;PMS_P1;PMS_P2;Temp;Humidity;BMP_temperature;BMP_pressure;BME280_temperature;BME280_humidity;BME280_pressure;Samples;Min_cycle;Max_cycle;Signal;HPM_P1;HPM_P2
2021/10/21 00:02:00;;;;;;;8.40;7.60;;;;;;;;;;5073426;28;20662;-83
2021/10/21 00:04:29;;;;;;;11.63;6.87;;;14.30;99.90;;;;;;5072879;28;20659;-83
2021/10/21 00:06:56;;;;;;;8.27;7.20;;;;;;;;;;5072491;28;20625;-83
2021/10/21 00:09:24;;;;;;;9.17;7.13;;;;;;;;;;5073342;28;20668;-83
2021/10/21 00:11:51;;;;;;;8.40;7.60;;;;;;;;;;5072819;28;20990;-83
2021/10/21 00:14:19;;;;;;;9.40;7.70;;;;;;;;;;5072926;28;20724;-84
2021/10/21 00:16:47;;;;;;;8.67;7.30;;;;;;;;;;5072709;28;20665;-84
2021/10/21 00:19:14;;;;;;;10.13;7.63;;;;;;;;;;5067671;28;20653;-83
2021/10/21 00:21:41;;;;;;;8.70;7.77;;;;;;;;;;5072799;28;20609;-84
2021/10/21 00:24:09;;;;;;;8.63;6.63;;;;;;;;;;5073164;28;20655;-84
2021/10/21 00:26:36;;;;;;;8.73;6.73;;;;;;;;;;5072210;28;21041;-84
2021/10/21 00:29:03;;;;;;;9.27;7.50;;;;;;;;;;5073172;28;21090;-85
2021/10/21 00:31:32;;;;;;;8.80;7.70;;;;;;;;;;5072878;28;20627;-85
2021/10/21 00:33:59;;;;;;;8.20;6.97;;;;;;;;;;5072850;28;21091;-85
2021/10/21 00:36:26;;;;;;;8.50;7.60;;;;;;;;;;5072424;28;21002;-85
2021/10/21 00:38:53;;;;;;;8.00;7.10;;;;;;;;;;5072748;28;21053;-86
2021/10/21 00:41:20;;;;;;;7.57;6.30;;;14.50;99.90;;;;;;5070651;28;21229;-85
2021/10/21 00:43:47;;;;;;;11.43;8.33;;;;;;;;;;5073171;28;20668;-84
2021/10/21 00:46:15;;;;;;;11.33;8.33;;;;;;;;;;5072265;28;20665;-83
2021/10/21 00:48:44;;;;;;;9.10;8.23;;;14.50;99.90;;;;;;5071580;28;21180;-83
2021/10/21 00:51:13;;;;;;;8.73;7.60;;;14.50;99.90;;;;;;5072188;28;20621;-83
2021/10/21 00:53:41;;;;;;;9.63;7.83;;;14.40;99.90;;;;;;5072718;28;20736;-83
2021/10/21 00:56:10;;;;;;;8.77;7.17;;;14.40;99.90;;;;;;5072253;28;21069;-84
2021/10/21 00:58:37;;;;;;;7.60;6.80;;;;;;;;;;5071815;28;20630;-83
2021/10/21 01:01:06;;;;;;;8.10;7.27;;;14.20;99.90;;;;;;5071848;28;20724;-84
2021/10/21 01:03:33;;;;;;;9.20;7.50;;;;;;;;;;5071976;28;20613;-84
2021/10/21 01:06:02;;;;;;;10.33;7.70;;;;;;;;;;5072343;28;20649;-84
2021/10/21 01:08:29;;;;;;;9.57;7.63;;;;;;;;;;5071452;28;20688;-84
2021/10/21 01:10:56;;;;;;;8.27;7.13;;;;;;;;;;5072299;28;20694;-84
2021/10/21 01:13:23;;;;;;;10.33;7.40;;;14.50;99.90;;;;;;5066624;28;20835;-84
2021/10/21 01:15:50;;;;;;;8.43;7.30;;;;;;;;;;5071881;28;20664;-84
2021/10/21 01:18:17;;;;;;;9.90;7.40;;;;;;;;;;5071518;28;20725;-83
2021/10/21 01:20:46;;;;;;;10.73;8.17;;;;;;;;;;5071872;28;20667;-83
2021/10/21 01:23:13;;;;;;;10.70;7.47;;;;;;;;;;5071651;28;20632;-83
2021/10/21 01:25:40;;;;;;;9.70;8.43;;;;;;;;;;5072334;28;20634;-84
2021/10/21 01:28:07;;;;;;;9.77;8.07;;;;;;;;;;5071046;28;21261;-83
2021/10/21 01:30:35;;;;;;;10.67;8.13;;;;;;;;;;5071369;28;21271;-84
2021/10/21 01:33:02;;;;;;;8.33;7.43;;;;;;;;;;5071974;28;20642;-84
2021/10/21 01:35:29;;;;;;;13.07;7.70;;;;;;;;;;5071749;28;20703;-84
2021/10/21 01:37:57;;;;;;;9.50;8.40;;;14.10;99.90;;;;;;5071155;28;20649;-83
2021/10/21 01:40:25;;;;;;;9.87;7.40;;;;;;;;;;5071321;28;20745;-83
2021/10/21 01:42:52;;;;;;;9.90;7.53;;;14.20;99.90;;;;;;5066587;28;20634;-83
2021/10/21 01:45:21;;;;;;;9.40;7.60;;;14.10;99.90;;;;;;5070614;28;20733;-83
2021/10/21 01:47:49;;;;;;;7.83;7.00;;;;;;;;;;5070957;28;20621;-84
2021/10/21 01:50:16;;;;;;;8.33;6.27;;;;;;;;;;5071310;28;20661;-84
2021/10/21 01:52:43;;;;;;;9.60;7.23;;;;;;;;;;5071191;28;20664;-84
2021/10/21 01:55:13;;;;;;;6.93;6.00;;;14.00;99.90;;;;;;5071131;28;21009;-83
2021/10/21 01:57:40;;;;;;;6.60;5.90;;;;;;;;;;5070142;28;20626;-83
2021/10/21 02:00:08;;;;;;;6.50;5.83;;;;;;;;;;5071500;28;20662;-84
2021/10/21 02:02:35;;;;;;;7.03;6.43;;;;;;;;;;5070563;28;20649;-83
2021/10/21 02:05:02;;;;;;;7.47;5.93;;;;;;;;;;5070528;28;21249;-82
2021/10/21 02:07:29;;;;;;;7.70;7.00;;;;;;;;;;5068413;28;20649;-82
2021/10/21 02:09:56;;;;;;;9.37;5.77;;;13.80;99.90;;;;;;5067304;28;21006;-82
2021/10/21 02:12:24;;;;;;;7.50;6.80;;;14.00;99.90;;;;;;5071064;28;21600;-82
2021/10/21 02:14:51;;;;;;;6.40;4.70;;;14.10;99.90;;;;;;5070358;28;20737;-81
2021/10/21 02:17:22;;;;;;;9.10;6.60;;;13.80;99.90;;;;;;5070161;28;20736;-80
2021/10/21 02:19:49;;;;;;;5.33;4.83;;;13.80;99.90;;;;;;5070766;28;20736;-81
2021/10/21 02:22:16;;;;;;;5.50;4.93;;;;;;;;;;5070503;28;20725;-82
2021/10/21 02:24:43;;;;;;;8.13;6.37;;;13.80;99.90;;;;;;5070358;28;20729;-82
2021/10/21 02:27:10;;;;;;;6.77;5.23;;;;;;;;;;5070494;28;20653;-82
2021/10/21 02:29:38;;;;;;;6.60;5.10;;;14.10;99.90;;;;;;5070680;28;20736;-82
2021/10/21 02:32:06;;;;;;;6.20;4.63;;;13.90;99.90;;;;;;5070703;28;21019;-83
2021/10/21 02:34:33;;;;;;;6.53;4.70;;;;;;;;;;5070549;28;21210;-83
2021/10/21 02:37:00;;;;;;;5.57;5.03;;;;;;;;;;5069378;28;20689;-83
2021/10/21 02:39:27;;;;;;;6.30;5.27;;;;;;;;;;5070554;28;20617;-83
2021/10/21 02:41:54;;;;;;;7.40;5.90;;;;;;;;;;5070344;28;20720;-83
2021/10/21 02:44:22;;;;;;;5.40;4.77;;;;;;;;;;5070718;28;20655;-83
2021/10/21 02:46:50;;;;;;;6.30;5.70;;;;;;;;;;5070045;28;20650;-84
2021/10/21 02:49:18;;;;;;;5.07;4.30;;;;;;;;;;5070537;28;20617;-84
2021/10/21 02:51:45;;;;;;;5.90;5.30;;;;;;;;;;5069981;28;20634;-84
2021/10/21 02:54:13;;;;;;;7.70;5.53;;;;;;;;;;5070302;28;20622;-83
2021/10/21 02:56:40;;;;;;;6.33;5.60;;;14.00;99.90;;;;;;5067955;28;21081;-84
2021/10/21 02:59:07;;;;;;;5.40;4.90;;;;;;;;;;5070228;28;20729;-84
2021/10/21 03:01:34;;;;;;;5.20;4.70;;;;;;;;;;5070217;28;20725;-83
2021/10/21 03:04:03;;;;;;;5.77;3.63;;;;;;;;;;5064104;28;20692;-84
2021/10/21 03:06:30;;;;;;;6.63;5.27;;;;;;;;;;5069603;28;20627;-85
2021/10/21 03:08:57;;;;;;;6.00;4.70;;;;;;;;;;5070219;28;20687;-84
2021/10/21 03:11:24;;;;;;;5.00;4.50;;;;;;;;;;5070603;28;20716;-84
2021/10/21 03:13:51;;;;;;;5.13;4.63;;;;;;;;;;5070276;28;21366;-84
2021/10/21 03:16:18;;;;;;;6.40;4.53;;;;;;;;;;5069052;28;20742;-85
2021/10/21 03:18:45;;;;;;;5.27;4.17;;;;;;;;;;5069778;28;20625;-83
2021/10/21 03:21:14;;;;;;;4.07;3.77;;;;;;;;;;5069916;28;20756;-85
2021/10/21 03:23:41;;;;;;;4.43;3.90;;;;;;;;;;5070424;28;20723;-84
2021/10/21 03:26:08;;;;;;;4.70;3.47;;;;;;;;;;5069975;28;20652;-85
2021/10/21 03:28:35;;;;;;;4.37;3.97;;;;;;;;;;5069586;28;20716;-84
2021/10/21 03:31:03;;;;;;;3.47;3.17;;;;;;;;;;5070672;28;20958;-83
2021/10/21 03:33:30;;;;;;;2.97;2.60;;;;;;;;;;5069461;28;21270;-84
2021/10/21 03:35:57;;;;;;;2.80;2.53;;;;;;;;;;5068395;28;21225;-84
2021/10/21 03:38:26;;;;;;;2.80;2.60;;;;;;;;;;5069543;28;21034;-85
2021/10/21 03:40:54;;;;;;;3.20;2.60;;;;;;;;;;5068934;28;20981;-85
2021/10/21 03:43:23;;;;;;;3.80;2.50;;;;;;;;;;5069693;28;20638;-84
2021/10/21 03:45:50;;;;;;;2.83;2.13;;;;;;;;;;5068110;28;20720;-85
2021/10/21 03:48:18;;;;;;;2.43;2.10;;;;;;;;;;5069359;28;20713;-85
2021/10/21 03:50:45;;;;;;;1.83;1.70;;;;;;;;;;5069374;28;20618;-85
2021/10/21 03:53:13;;;;;;;3.67;1.97;;;;;;;;;;5069830;28;20625;-84
2021/10/21 03:55:41;;;;;;;1.80;1.70;;;;;;;;;;5069450;28;20653;-86
2021/10/21 03:58:09;;;;;;;1.63;1.47;;;;;;;;;;5064659;28;20744;-85
2021/10/21 04:00:36;;;;;;;1.60;1.50;;;;;;;;;;5069186;28;20625;-85
2021/10/21 04:03:04;;;;;;;2.40;1.80;;;;;;;;;;5069097;28;20704;-84
2021/10/21 04:05:31;;;;;;;1.53;1.43;;;;;;;;;;5069771;28;20737;-85
2021/10/21 04:07:58;;;;;;;1.33;1.23;;;;;;;;;;5069076;28;20954;-85
2021/10/21 04:10:26;;;;;;;2.97;1.73;;;;;;;;;;5069576;28;21023;-85
2021/10/21 04:12:54;;;;;;;4.73;1.57;;;;;;;;;;5069733;28;21196;-85
2021/10/21 04:15:24;;;;;;;1.33;1.23;;;;;;;;;;5069463;28;21119;-86
2021/10/21 04:17:52;;;;;;;2.40;1.13;;;;;;;;;;5069280;28;20645;-84
2021/10/21 04:20:20;;;;;;;1.43;1.33;;;;;;;;;;5069500;28;20657;-86
2021/10/21 04:22:47;;;;;;;1.30;1.20;;;;;;;;;;5069239;28;20630;-85
2021/10/21 04:25:14;;;;;;;1.27;1.20;;;;;;;;;;5063710;28;20637;-84
2021/10/21 04:27:43;;;;;;;2.10;1.30;;;;;;;;;;5070568;28;20626;-85
2021/10/21 04:30:12;;;;;;;2.00;1.10;;;13.20;99.90;;;;;;5071969;28;20680;-87
2021/10/21 04:32:42;;;;;;;1.20;1.10;;;;;;;;;;5072811;28;20717;-86
2021/10/21 04:35:09;;;;;;;1.20;1.10;;;13.20;99.90;;;;;;5053392;28;20672;-87
2021/10/21 04:37:37;;;;;;;1.03;0.90;;;13.00;99.90;;;;;;5072335;28;20758;-86
2021/10/21 04:40:05;;;;;;;2.20;1.10;;;13.00;99.90;;;;;;5070035;28;20680;-85
2021/10/21 04:42:32;;;;;;;3.57;1.23;;;;;;;;;;5075368;28;20676;-88
2021/10/21 04:44:59;;;;;;;2.10;0.87;;;;;;;;;;5073382;28;20633;-88
2021/10/21 04:47:28;;;;;;;1.10;0.97;;;;;;;;;;5072794;28;20978;-88
2021/10/21 04:49:56;;;;;;;1.23;0.70;;;;;;;;;;5072361;28;20623;-89
2021/10/21 04:52:23;;;;;;;1.17;0.93;;;;;;;;;;5070065;28;20720;-89
2021/10/21 04:54:50;;;;;;;0.80;0.80;;;;;;;;;;5072341;28;20618;-89
2021/10/21 04:57:17;;;;;;;2.60;0.83;;;;;;;;;;5072022;28;20761;-87
2021/10/21 04:59:44;;;;;;;1.43;1.10;;;;;;;;;;5072721;28;21267;-89
2021/10/21 05:02:11;;;;;;;0.80;0.70;;;;;;;;;;5069278;28;20650;-91
2021/10/21 05:04:40;;;;;;;0.60;0.60;;;;;;;;;;5071818;28;20622;-90
2021/10/21 05:07:07;;;;;;;3.17;0.70;;;;;;;;;;5069747;28;20729;-90
2021/10/21 05:09:34;;;;;;;2.20;0.80;;;;;;;;;;5071304;28;20682;-90
2021/10/21 05:12:01;;;;;;;4.60;0.87;;;;;;;;;;5070619;28;21178;-92
2021/10/21 05:14:29;;;;;;;2.90;0.63;;;;;;;;;;5070662;28;20618;-88
2021/10/21 05:16:56;;;;;;;2.77;0.60;;;;;;;;;;5069869;28;21314;-90
2021/10/21 05:19:26;;;;;;;7.17;1.77;;;;;;;;;;5071002;28;20677;-90
2021/10/21 05:21:54;;;;;;;2.17;0.73;;;;;;;;;;5074240;28;20625;-89
2021/10/21 05:24:21;;;;;;;3.47;1.10;;;;;;;;;;5072175;28;20625;-92
2021/10/21 05:26:49;;;;;;;2.10;0.80;;;;;;;;;;5071183;28;20618;-89
2021/10/21 05:29:16;;;;;;;3.60;1.07;;;;;;;;;;5070148;28;20677;-93
2021/10/21 05:31:43;;;;;;;2.40;0.83;;;;;;;;;;5070968;28;20630;-89
2021/10/21 05:34:10;;;;;;;1.37;0.90;;;;;;;;;;5057505;28;20657;-88
2021/10/21 05:36:38;;;;;;;0.93;0.67;;;;;;;;;;5068111;28;21449;-90
2021/10/21 05:39:06;;;;;;;2.20;0.67;;;;;;;;;;5060818;28;21047;-90
2021/10/21 05:41:33;;;;;;;1.60;0.60;;;;;;;;;;5071488;28;20626;-87
2021/10/21 05:44:01;;;;;;;1.37;0.70;;;;;;;;;;5071535;28;20629;-86
2021/10/21 05:46:28;;;;;;;3.23;0.90;;;;;;;;;;5067203;28;20677;-89
2021/10/21 05:48:55;;;;;;;4.00;1.37;;;;;;;;;;5052883;28;20647;-88
2021/10/21 05:51:22;;;;;;;1.10;0.90;;;;;;;;;;5071565;28;20638;-90
2021/10/21 05:53:49;;;;;;;2.10;0.73;;;;;;;;;;5071583;28;20668;-87
2021/10/21 05:56:18;;;;;;;1.60;0.93;;;;;;;;;;5066001;28;21189;-88
2021/10/21 05:58:45;;;;;;;6.63;2.03;;;;;;;;;;5070589;28;20621;-87
2021/10/21 06:01:12;;;;;;;9.23;1.17;;;;;;;;;;5070728;28;20672;-87
2021/10/21 06:03:39;;;;;;;3.10;1.27;;;;;;;;;;5071309;28;20626;-88
2021/10/21 06:06:07;;;;;;;3.70;0.87;;;11.80;95.70;;;;;;5071409;28;20630;-86
2021/10/21 06:08:35;;;;;;;4.00;1.40;;;;;;;;;;5066326;28;21058;-88
2021/10/21 06:11:03;;;;;;;1.07;0.50;;;;;;;;;;5070600;28;21228;-87
2021/10/21 06:13:32;;;;;;;0.93;0.50;;;;;;;;;;5069533;28;20744;-88
2021/10/21 06:15:59;;;;;;;5.90;1.90;;;;;;;;;;5070341;28;20672;-88
2021/10/21 06:18:26;;;;;;;3.97;1.20;;;;;;;;;;5068941;28;20687;-89
2021/10/21 06:20:54;;;;;;;5.93;1.13;;;;;;;;;;5070972;28;20687;-87
2021/10/21 06:23:21;;;;;;;2.60;0.90;;;;;;;;;;5070750;28;21178;-88
2021/10/21 06:25:48;;;;;;;4.77;1.00;;;;;;;;;;5070840;28;20622;-88
2021/10/21 06:28:15;;;;;;;4.07;1.30;;;;;;;;;;5070126;28;20648;-88
2021/10/21 06:30:45;;;;;;;3.13;0.90;;;;;;;;;;5070196;28;20718;-87
2021/10/21 06:33:12;;;;;;;13.03;1.00;;;12.60;99.90;;;;;;5068462;28;20699;-86
2021/10/21 06:35:40;;;;;;;7.33;1.70;;;;;;;;;;5069789;28;20741;-87
2021/10/21 06:38:07;;;;;;;2.87;1.47;;;;;;;;;;5066353;28;20681;-88
2021/10/21 06:40:34;;;;;;;5.47;1.33;;;;;;;;;;5070038;28;20618;-86
2021/10/21 06:43:01;;;;;;;4.53;1.00;;;;;;;;;;5069979;28;20661;-87
2021/10/21 06:45:29;;;;;;;3.53;1.67;;;12.00;96.00;;;;;;5070045;28;20653;-88
2021/10/21 06:48:02;;;;;;;3.53;1.03;;;;;;;;;;5069803;28;20618;-87
2021/10/21 06:50:30;;;;;;;2.43;1.23;;;;;;;;;;5065896;28;20627;-88
2021/10/21 06:52:57;;;;;;;2.80;1.13;;;;;;;;;;5069077;28;20641;-87
2021/10/21 06:55:24;;;;;;;2.43;1.00;;;;;;;;;;5069079;28;20707;-88
2021/10/21 06:57:53;;;;;;;5.47;1.20;;;12.20;94.70;;;;;;5070076;28;20653;-86
2021/10/21 07:00:20;;;;;;;2.00;1.07;;;12.30;93.20;;;;;;5064421;28;20650;-86
2021/10/21 07:02:48;;;;;;;1.13;1.03;;;;;;;;;;5069764;28;20675;-87
2021/10/21 07:05:17;;;;;;;4.30;0.80;;;12.50;93.60;;;;;;5069391;28;20683;-87
2021/10/21 07:07:44;;;;;;;2.53;1.23;;;;;;;;;;5069359;28;20651;-87
2021/10/21 07:10:12;;;;;;;2.03;0.87;;;12.70;91.90;;;;;;5069193;28;20625;-87
2021/10/21 07:12:41;;;;;;;3.80;1.10;;;12.70;93.40;;;;;;5069247;28;21174;-87
2021/10/21 07:15:10;;;;;;;3.03;0.80;;;12.60;99.90;;;;;;5053607;28;20648;-85
2021/10/21 07:17:37;;;;;;;5.97;1.47;;;;;;;;;;5066309;28;20649;-89
2021/10/21 07:20:05;;;;;;;2.73;0.70;;;12.60;92.30;;;;;;5069763;28;20674;-86
2021/10/21 07:22:34;;;;;;;6.10;1.40;;;;;;;;;;5068795;28;20669;-88
2021/10/21 07:25:01;;;;;;;2.23;0.67;;;;;;;;;;5069071;28;20637;-87
2021/10/21 07:27:29;;;;;;;6.37;0.80;;;;;;;;;;5069022;28;20622;-87
2021/10/21 07:29:56;;;;;;;3.93;1.33;;;;;;;;;;5030042;28;1137984;-89
2021/10/21 07:32:23;;;;;;;1.13;0.77;;;;;;;;;;5069929;28;20614;-88
2021/10/21 07:34:51;;;;;;;4.73;0.83;;;;;;;;;;5069770;28;20660;-88
2021/10/21 07:37:18;;;;;;;5.70;0.80;;;;;;;;;;5069965;28;20646;-87
2021/10/21 07:39:48;;;;;;;1.27;0.70;;;;;;;;;;5069447;28;20605;-88
2021/10/21 07:42:15;;;;;;;2.00;0.90;;;;;;;;;;5070197;28;20626;-87
2021/10/21 07:44:42;;;;;;;2.87;0.60;;;;;;;;;;5070275;28;20690;-86
2021/10/21 07:47:10;;;;;;;3.03;0.70;;;;;;;;;;5070314;28;20725;-89
2021/10/21 07:49:40;;;;;;;2.93;0.83;;;;;;;;;;5067089;28;20649;-88
2021/10/21 07:52:10;;;;;;;10.67;1.40;;;;;;;;;;5069435;28;20651;-87
2021/10/21 07:54:39;;;;;;;6.97;1.40;;;;;;;;;;5070138;28;20617;-86
2021/10/21 07:57:08;;;;;;;2.77;0.77;;;;;;;;;;5069053;28;20657;-87
2021/10/21 07:59:36;;;;;;;11.83;1.03;;;;;;;;;;5069562;28;20617;-89
2021/10/21 08:02:03;;;;;;;2.40;0.70;;;13.10;90.10;;;;;;5071110;28;20636;-88
2021/10/21 08:04:31;;;;;;;2.33;0.70;;;;;;;;;;5072889;28;20679;-87
2021/10/21 08:07:02;;;;;;;3.53;0.73;;;;;;;;;;5072792;28;20656;-86
2021/10/21 08:09:39;;;;;;;7.30;0.67;;;;;;;;;;5073224;28;20675;-89
2021/10/21 08:12:13;;;;;;;1.33;0.40;;;;;;;;;;5073210;28;20624;-89
2021/10/21 08:14:40;;;;;;;1.33;0.40;;;;;;;;;;5072244;28;20625;-87
2021/10/21 08:17:07;;;;;;;0.97;0.50;;;;;;;;;;5066011;28;20670;-87
2021/10/21 08:19:36;;;;;;;1.00;0.70;;;13.50;90.40;;;;;;5062489;28;20721;-89
2021/10/21 08:22:06;;;;;;;1.00;0.67;;;;;;;;;;5068362;28;20649;-88
2021/10/21 08:24:33;;;;;;;1.07;0.50;;;;;;;;;;5072131;28;20614;-89
2021/10/21 08:27:19;;;;;;;1.17;0.70;;;13.70;89.50;;;;;;5071357;28;20629;-89
2021/10/21 08:29:48;;;;;;;1.50;0.50;;;;;;;;;;5069712;28;20689;-89
2021/10/21 08:32:23;;;;;;;2.20;0.77;;;;;;;;;;5070922;28;20635;-89
2021/10/21 08:34:57;;;;;;;1.23;0.50;;;;;;;;;;5071867;28;20621;-88
2021/10/21 08:37:24;;;;;;;5.40;1.57;;;;;;;;;;5072424;28;21260;-88
2021/10/21 08:39:51;;;;;;;0.87;0.50;;;;;;;;;;5070268;28;20664;-89
2021/10/21 08:42:20;;;;;;;3.07;0.67;;;;;;;;;;5073155;28;20637;-88
2021/10/21 08:44:51;;;;;;;3.13;0.63;;;;;;;;;;5071598;28;21126;-86
2021/10/21 08:47:19;;;;;;;1.63;0.67;;;;;;;;;;5072787;28;20691;-88
2021/10/21 08:49:49;;;;;;;2.20;0.50;;;;;;;;;;5072042;28;20725;-87
2021/10/21 08:52:24;;;;;;;1.00;0.70;;;;;;;;;;5072639;28;21144;-88
2021/10/21 08:54:52;;;;;;;0.90;0.80;;;;;;;;;;5072219;28;20675;-86
2021/10/21 08:57:19;;;;;;;1.10;0.40;;;;;;;;;;5050724;28;21030;-86
2021/10/21 08:59:46;;;;;;;2.17;0.70;;;;;;;;;;5070617;28;20716;-89
2021/10/21 09:02:19;;;;;;;2.37;1.00;;;;;;;;;;5072278;28;20979;-86
2021/10/21 09:05:03;;;;;;;10.43;1.30;;;;;;;;;;5072065;28;20633;-87
2021/10/21 09:10:15;;;;;;;0.50;0.30;;;;;;;;;;5069318;28;20608;-87
2021/10/21 09:12:53;;;;;;;4.80;0.60;;;12.80;93.20;;;;;;5072096;28;20618;-86
2021/10/21 09:15:22;;;;;;;1.27;0.77;;;12.80;93.50;;;;;;5071859;28;20637;-86
2021/10/21 09:17:54;;;;;;;1.23;0.73;;;;;;;;;;5071884;28;20661;-88
2021/10/21 09:20:35;;;;;;;0.90;0.40;;;13.00;93.60;;;;;;5067019;28;21221;-88
2021/10/21 09:23:06;;;;;;;2.70;0.70;;;12.70;93.60;;;;;;5065760;28;20644;-90
2021/10/21 09:25:33;;;;;;;1.80;0.87;;;;;;;;;;5068553;28;20617;-88
2021/10/21 09:28:02;;;;;;;0.87;0.40;;;13.10;94.00;;;;;;5071978;28;20672;-90
2021/10/21 09:30:30;;;;;;;0.67;0.30;;;13.20;93.20;;;;;;5070811;28;20656;-85
2021/10/21 09:33:04;;;;;;;0.60;0.47;;;13.00;93.60;;;;;;5070698;28;20618;-87
2021/10/21 09:35:31;;;;;;;1.10;0.50;;;;;;;;;;5071943;28;21064;-87
2021/10/21 09:37:59;;;;;;;0.90;0.47;;;;;;;;;;5071247;28;20715;-86
2021/10/21 09:40:32;;;;;;;0.67;0.43;;;13.00;93.30;;;;;;5071689;28;20696;-89
2021/10/21 09:43:00;;;;;;;0.40;0.30;;;13.00;93.40;;;;;;5071942;28;20691;-87
2021/10/21 09:45:28;;;;;;;1.00;0.43;;;12.70;93.40;;;;;;5071161;28;20699;-86
2021/10/21 09:47:57;;;;;;;1.07;0.33;;;12.60;92.80;;;;;;5071576;28;20621;-86
2021/10/21 09:50:28;;;;;;;1.77;0.40;;;12.30;92.60;;;;;;5070486;28;20697;-85
2021/10/21 09:53:02;;;;;;;0.80;0.30;;;;;;;;;;5071552;28;20662;-86
2021/10/21 09:55:29;;;;;;;0.40;0.27;;;;;;;;;;5070930;28;21254;-86
2021/10/21 09:58:00;;;;;;;0.80;0.40;;;;;;;;;;5066180;28;21236;-86
2021/10/21 10:00:31;;;;;;;0.90;0.30;;;;;;;;;;5071239;28;20728;-87
2021/10/21 10:03:09;;;;;;;1.23;0.40;;;11.80;93.30;;;;;;5065118;28;20664;-85
2021/10/21 10:05:37;;;;;;;1.10;0.50;;;;;;;;;;5060867;28;20621;-86
2021/10/21 10:08:08;;;;;;;0.60;0.40;;;;;;;;;;5066452;28;20683;-87
2021/10/21 10:10:36;;;;;;;0.67;0.40;;;;;;;;;;5068496;28;20656;-85
2021/10/21 10:13:03;;;;;;;0.83;0.50;;;;;;;;;;5070332;28;20619;-86
2021/10/21 10:15:30;;;;;;;6.43;0.90;;;;;;;;;;5070445;28;20671;-88
2021/10/21 10:17:58;;;;;;;3.73;1.10;;;;;;;;;;5071169;28;20689;-85
2021/10/21 10:20:26;;;;;;;2.57;0.40;;;;;;;;;;5071063;28;21157;-85
2021/10/21 10:22:55;;;;;;;0.40;0.40;;;;;;;;;;5058736;28;20642;-87
2021/10/21 10:25:23;;;;;;;0.93;0.50;;;;;;;;;;5067977;28;20750;-85
2021/10/21 10:27:55;;;;;;;1.17;0.40;;;11.90;91.30;;;;;;5069765;28;21192;-87
2021/10/21 10:30:46;;;;;;;1.37;0.60;;;11.80;91.20;;;;;;5071476;28;21024;-86
2021/10/21 10:33:18;;;;;;;0.87;0.70;;;;;;;;;;5071169;28;20646;-86
2021/10/21 10:35:47;;;;;;;0.73;0.40;;;;;;;;;;5068219;28;20614;-85
2021/10/21 10:38:17;;;;;;;0.87;0.50;;;;;;;;;;5072644;28;20661;-87
2021/10/21 10:40:46;;;;;;;0.93;0.40;;;;;;;;;;5068073;28;21165;-86
2021/10/21 10:43:17;;;;;;;0.40;0.40;;;;;;;;;;5073674;28;20630;-86
2021/10/21 10:45:51;;;;;;;4.33;0.60;;;12.20;91.10;;;;;;5074529;28;20621;-85
2021/10/21 10:48:52;;;;;;;0.60;0.50;;;12.60;90.90;;;;;;5072357;28;20629;-84
2021/10/21 10:51:21;;;;;;;3.50;0.90;;;;;;;;;;5060403;28;20641;-84
2021/10/21 10:53:51;;;;;;;0.70;0.70;;;12.60;91.20;;;;;;5066610;28;20622;-85
2021/10/21 10:56:55;;;;;;;1.00;1.00;;;12.60;99.90;;;;;;5064416;28;20869;-85
2021/10/21 10:59:23;;;;;;;4.83;0.60;;;;;;;;;;5069119;28;20656;-85
2021/10/21 11:01:52;;;;;;;0.87;0.87;;;12.70;88.60;;;;;;5069778;28;21078;-86
2021/10/21 11:05:03;;;;;;;0.97;0.60;;;12.80;84.90;;;;;;5049133;28;21165;-84
2021/10/21 11:07:31;;;;;;;1.50;0.50;;;;;;;;;;5065809;28;20629;-85
2021/10/21 11:10:31;;;;;;;0.63;0.63;;;12.80;87.30;;;;;;5070242;28;20724;-86
2021/10/21 11:13:00;;;;;;;1.07;0.70;;;;;;;;;;5064686;28;20774;-84
2021/10/21 11:15:41;;;;;;;2.87;0.93;;;;;;;;;;5070404;28;20667;-84
2021/10/21 11:18:09;;;;;;;0.60;0.50;;;;;;;;;;5069390;28;21370;-85
2021/10/21 11:20:40;;;;;;;0.50;0.50;;;13.00;85.90;;;;;;5070241;28;20622;-84
2021/10/21 11:23:08;;;;;;;1.00;0.70;;;13.10;87.60;;;;;;5070365;28;20729;-84
2021/10/21 11:25:37;;;;;;;1.50;0.60;;;13.10;84.40;;;;;;5070068;28;20677;-84
2021/10/21 11:28:08;;;;;;;6.73;0.80;;;13.10;85.10;;;;;;5070398;28;20625;-86
2021/10/21 11:30:37;;;;;;;1.40;0.93;;;13.20;84.40;;;;;;5070105;28;20687;-84
2021/10/21 11:33:06;;;;;;;2.57;0.50;;;13.20;84.00;;;;;;5070345;28;20725;-85
2021/10/21 11:35:35;;;;;;;1.60;0.83;;;13.20;83.60;;;;;;5069810;28;20952;-84
2021/10/21 11:38:03;;;;;;;0.60;0.60;;;13.30;82.20;;;;;;5073694;28;21136;-84
2021/10/21 11:40:34;;;;;;;0.90;0.73;;;13.30;85.40;;;;;;5074423;28;20629;-84
2021/10/21 11:43:03;;;;;;;4.17;0.70;;;13.40;83.80;;;;;;5073808;28;20950;-85
2021/10/21 11:45:34;;;;;;;1.33;0.73;;;13.40;83.10;;;;;;5072401;28;21050;-84
2021/10/21 11:48:04;;;;;;;2.80;0.80;;;13.40;82.80;;;;;;5071108;28;20622;-85
2021/10/21 11:50:37;;;;;;;1.20;0.67;;;13.50;85.10;;;;;;5073535;28;20707;-85
2021/10/21 11:53:04;;;;;;;2.00;0.80;;;;;;;;;;5074207;28;20672;-84
2021/10/21 11:55:32;;;;;;;1.63;0.83;;;;;;;;;;5073220;28;20661;-85
2021/10/21 11:58:01;;;;;;;1.17;0.70;;;;;;;;;;5073727;28;20702;-86
2021/10/21 12:00:31;;;;;;;1.23;0.60;;;14.10;83.50;;;;;;5073884;28;20632;-86
2021/10/21 12:03:01;;;;;;;1.30;0.50;;;14.30;84.00;;;;;;5073246;28;20660;-85
2021/10/21 12:05:29;;;;;;;0.83;0.57;;;14.20;79.10;;;;;;5073482;28;20622;-85
2021/10/21 12:07:58;;;;;;;1.50;0.60;;;14.30;80.10;;;;;;5073554;28;20694;-85
2021/10/21 12:10:30;;;;;;;1.43;0.50;;;14.30;80.60;;;;;;5074284;28;20609;-85
2021/10/21 12:12:57;;;;;;;1.13;0.50;;;;;;;;;;5068190;28;20695;-86
2021/10/21 12:15:28;;;;;;;3.63;0.77;;;14.10;80.20;;;;;;5073258;28;20621;-85
2021/10/21 12:17:55;;;;;;;0.50;0.50;;;14.40;97.50;;;;;;5073596;28;20628;-85
2021/10/21 12:20:35;;;;;;;3.73;0.83;;;;;;;;;;5073352;28;20667;-85
2021/10/21 12:23:14;;;;;;;0.67;0.47;;;;;;;;;;5073755;28;20655;-86
2021/10/21 12:25:41;;;;;;;1.60;0.63;;;;;;;;;;5073271;28;20666;-85
2021/10/21 12:28:08;;;;;;;1.20;0.90;;;;;;;;;;5072880;28;20610;-85
2021/10/21 12:30:38;;;;;;;1.93;1.20;;;;;;;;;;5071520;28;20618;-85
2021/10/21 12:33:09;;;;;;;3.53;1.10;;;;;;;;;;5072472;28;20641;-85
2021/10/21 12:35:38;;;;;;;2.20;0.63;;;;;;;;;;5071590;28;20622;-85
2021/10/21 12:38:06;;;;;;;0.67;0.67;;;;;;;;;;5072981;28;20675;-85
2021/10/21 12:40:36;;;;;;;0.60;0.53;;;14.00;77.60;;;;;;5072785;28;20974;-86
2021/10/21 12:43:13;;;;;;;0.60;0.40;;;;;;;;;;5073387;28;21100;-83
2021/10/21 12:45:40;;;;;;;3.63;1.00;;;;;;;;;;5072656;28;20633;-86
2021/10/21 12:48:20;;;;;;;1.57;0.70;;;;;;;;;;5072707;28;20657;-85
2021/10/21 12:50:50;;;;;;;0.40;0.37;;;;;;;;;;5067954;28;20702;-86
2021/10/21 12:53:18;;;;;;;2.50;0.83;;;;;;;;;;5072758;28;20660;-85
2021/10/21 12:55:45;;;;;;;2.07;0.83;;;;;;;;;;5072024;28;20620;-85
2021/10/21 12:58:20;;;;;;;6.53;0.90;;;14.30;78.70;;;;;;5073038;28;20628;-85
2021/10/21 13:00:48;;;;;;;2.93;0.50;;;;;;;;;;5072366;28;20611;-86
2021/10/21 13:03:17;;;;;;;3.53;0.70;;;14.30;79.50;;;;;;5065448;28;20661;-86
2021/10/21 13:05:45;;;;;;;1.57;0.60;;;14.20;76.30;;;;;;5065118;28;21143;-83
2021/10/21 13:08:14;;;;;;;1.90;0.60;;;;;;;;;;5071855;28;20682;-84
2021/10/21 13:11:01;;;;;;;1.33;0.70;;;14.20;79.70;;;;;;5060054;28;20618;-87
2021/10/21 13:13:30;;;;;;;2.27;1.07;;;;;;;;;;5071031;28;20632;-86
2021/10/21 13:16:02;;;;;;;2.30;0.70;;;14.00;76.80;;;;;;5072129;28;20632;-86
2021/10/21 13:18:40;;;;;;;0.93;0.60;;;;;;;;;;5070465;28;20656;-87
2021/10/21 13:21:08;;;;;;;2.00;0.93;;;;;;;;;;5072127;28;20629;-86
2021/10/21 13:23:41;;;;;;;1.10;1.00;;;;;;;;;;5072365;28;20691;-86
2021/10/21 13:26:18;;;;;;;3.03;0.50;;;;;;;;;;5072281;28;20626;-86
2021/10/21 13:28:49;;;;;;;1.30;0.77;;;;;;;;;;5057252;28;20680;-86
2021/10/21 13:31:19;;;;;;;2.33;0.53;;;;;;;;;;5071642;28;21193;-85
2021/10/21 13:33:46;;;;;;;1.27;0.80;;;;;;;;;;5072398;28;20625;-85
2021/10/21 13:36:17;;;;;;;1.30;0.73;;;13.80;78.20;;;;;;5072355;28;20620;-85
2021/10/21 13:38:46;;;;;;;1.00;0.63;;;;;;;;;;5072025;28;21255;-83
2021/10/21 13:41:14;;;;;;;0.70;0.60;;;;;;;;;;5071498;28;20657;-84
2021/10/21 13:43:41;;;;;;;1.83;1.13;;;;;;;;;;5070871;28;21178;-85
2021/10/21 13:46:10;;;;;;;0.70;0.63;;;;;;;;;;5067404;28;21046;-86
2021/10/21 13:48:37;;;;;;;0.50;0.50;;;;;;;;;;5068359;28;20622;-85
2021/10/21 13:51:04;;;;;;;0.50;0.50;;;;;;;;;;5070319;28;20637;-86
2021/10/21 13:53:32;;;;;;;0.77;0.67;;;;;;;;;;5071484;28;20758;-84
2021/10/21 13:56:00;;;;;;;4.03;0.90;;;;;;;;;;5071171;28;20675;-85
2021/10/21 13:58:27;;;;;;;3.03;0.70;;;;;;;;;;5067982;28;20838;-86
2021/10/21 14:00:55;;;;;;;2.00;0.80;;;;;;;;;;5068856;28;20691;-85
2021/10/21 14:03:22;;;;;;;2.93;1.00;;;;;;;;;;5071538;28;21020;-85
2021/10/21 14:05:49;;;;;;;1.17;0.50;;;;;;;;;;5071915;28;20618;-84
2021/10/21 14:08:17;;;;;;;2.43;0.63;;;;;;;;;;5060821;28;20607;-84
2021/10/21 14:10:45;;;;;;;2.20;0.63;;;;;;;;;;5067696;28;20630;-84
2021/10/21 14:13:14;;;;;;;0.50;0.40;;;;;;;;;;5071119;28;20635;-85
2021/10/21 14:15:42;;;;;;;1.47;0.70;;;;;;;;;;5067087;28;20773;-85
2021/10/21 14:18:10;;;;;;;0.70;0.50;;;;;;;;;;5067126;28;20680;-84
2021/10/21 14:20:37;;;;;;;3.37;0.87;;;;;;;;;;5069366;28;21083;-85
2021/10/21 14:23:04;;;;;;;2.00;0.43;;;;;;;;;;5064573;28;20718;-85
2021/10/21 14:25:32;;;;;;;1.23;0.70;;;;;;;;;;5069244;28;20636;-84